createdAt,value
2022-11-10T00:01:55.982Z,79.69
2022-11-10T00:04:47.315Z,79.79
2022-11-10T00:07:39.321Z,80.03
2022-11-10T00:10:31.228Z,79.66
2022-11-10T00:13:22.669Z,80.11
2022-11-10T00:16:31.097Z,80.00
2022-11-10T00:19:22.282Z,80.20
2022-11-10T00:22:13.166Z,80.48
2022-11-10T00:25:04.325Z,80.44
2022-11-10T00:27:55.843Z,80.44
2022-11-10T00:30:47.028Z,80.68
2022-11-10T00:33:39.530Z,80.53
2022-11-10T00:36:30.323Z,81.11
2022-11-10T00:39:21.267Z,81.41
2022-11-10T00:42:14.707Z,80.69
2022-11-10T00:45:05.616Z,80.85
2022-11-10T00:47:57.788Z,80.79
2022-11-10T00:50:49.960Z,80.71
2022-11-10T00:53:40.757Z,80.53
2022-11-10T00:56:31.572Z,80.43
2022-11-10T00:59:23.759Z,80.39
2022-11-10T01:02:14.857Z,81.06
2022-11-10T01:05:07.838Z,80.75
2022-11-10T01:08:00.717Z,80.74
2022-11-10T01:10:51.443Z,80.99
2022-11-10T01:13:44.436Z,81.21
2022-11-10T01:16:35.770Z,81.03
2022-11-10T01:19:26.742Z,81.25
2022-11-10T01:22:17.716Z,81.42
2022-11-10T01:25:13.051Z,80.90
2022-11-10T01:28:04.062Z,80.99
2022-11-10T01:31:01.478Z,81.04
2022-11-10T01:33:56.936Z,80.94
2022-11-10T01:36:48.157Z,81.54
2022-11-10T01:39:38.994Z,81.67
2022-11-10T01:42:52.607Z,81.97
2022-11-10T01:45:52.298Z,82.11
2022-11-10T01:48:49.586Z,82.35
2022-11-10T01:51:50.776Z,82.09
2022-11-10T01:54:47.209Z,82.19
2022-11-10T01:57:39.809Z,82.29
2022-11-10T02:00:31.280Z,82.37
2022-11-10T02:03:31.870Z,82.01
2022-11-10T02:06:28.568Z,82.27
2022-11-10T02:09:20.862Z,82.53
2022-11-10T02:12:12.352Z,82.59
2022-11-10T02:15:12.692Z,82.30
2022-11-10T02:18:03.414Z,82.50
2022-11-10T02:20:54.191Z,82.94
2022-11-10T02:23:55.310Z,82.92
2022-11-10T02:26:52.156Z,82.86
2022-11-10T02:29:45.178Z,83.66
2022-11-10T02:32:36.429Z,83.63
2022-11-10T02:35:27.390Z,83.30
2022-11-10T02:38:19.172Z,83.31
2022-11-10T02:41:10.860Z,83.26
2022-11-10T02:44:04.416Z,83.61
2022-11-10T02:46:54.973Z,83.53
2022-11-10T02:49:46.479Z,84.00
2022-11-10T02:52:40.826Z,84.07
2022-11-10T02:55:32.844Z,84.04
2022-11-10T02:58:23.417Z,84.78
2022-11-10T03:01:15.683Z,84.52
2022-11-10T03:04:10.907Z,85.39
2022-11-10T03:07:02.336Z,85.69
2022-11-10T03:09:54.855Z,85.72
2022-11-10T03:12:45.484Z,85.22
2022-11-10T03:15:36.697Z,85.17
2022-11-10T03:18:27.464Z,85.21
2022-11-10T03:21:19.209Z,85.65
2022-11-10T03:24:10.551Z,85.32
2022-11-10T03:27:02.592Z,85.42
2022-11-10T03:29:53.844Z,86.27
2022-11-10T03:32:48.227Z,86.55
2022-11-10T03:35:38.893Z,86.50
2022-11-10T03:38:30.696Z,86.47
2022-11-10T03:41:21.390Z,85.58
2022-11-10T03:44:12.439Z,85.85
2022-11-10T03:47:04.148Z,86.08
2022-11-10T03:49:55.341Z,85.81
2022-11-10T03:52:49.062Z,85.54
2022-11-10T03:55:39.924Z,85.69
2022-11-10T03:58:30.907Z,85.62
2022-11-10T04:01:24.207Z,85.62
2022-11-10T04:04:29.862Z,85.71
2022-11-10T04:07:44.620Z,85.29
2022-11-10T04:10:37.998Z,85.40
2022-11-10T04:13:46.855Z,85.38
2022-11-10T04:16:38.181Z,84.94
2022-11-10T04:19:29.971Z,85.45
2022-11-10T04:22:41.801Z,86.49
2022-11-10T04:25:54.138Z,86.78
2022-11-10T04:28:50.717Z,87.61
2022-11-10T04:31:45.232Z,87.83
2022-11-10T04:34:38.077Z,87.20
2022-11-10T04:37:29.125Z,87.20
2022-11-10T04:40:20.406Z,87.19
2022-11-10T04:43:12.166Z,86.92
2022-11-10T04:46:04.764Z,87.41
2022-11-10T04:48:57.334Z,87.84
2022-11-10T04:51:48.382Z,87.79
2022-11-10T04:54:39.672Z,87.73
2022-11-10T04:57:31.044Z,87.57
2022-11-10T05:00:24.330Z,88.07
2022-11-10T05:03:16.013Z,87.97
2022-11-10T05:06:08.023Z,87.71
2022-11-10T05:08:58.950Z,87.76
2022-11-10T05:11:50.189Z,87.34
2022-11-10T05:14:45.275Z,87.42
2022-11-10T05:17:39.059Z,87.56
2022-11-10T05:20:31.993Z,87.29
2022-11-10T05:23:39.375Z,87.64
2022-11-10T05:26:32.011Z,87.91
2022-11-10T05:29:22.798Z,87.43
2022-11-10T05:32:17.068Z,88.06
2022-11-10T05:35:14.059Z,87.55
2022-11-10T05:38:08.875Z,87.52
2022-11-10T05:41:00.540Z,87.45
2022-11-10T05:43:55.632Z,86.67
2022-11-10T05:46:49.852Z,86.84
2022-11-10T05:49:42.067Z,87.19
2022-11-10T05:52:33.258Z,87.13
2022-11-10T05:55:29.004Z,86.48
2022-11-10T06:08:45.498Z,86.35
2022-11-10T06:11:37.178Z,86.38
2022-11-10T06:14:29.829Z,86.39
2022-11-10T06:17:22.091Z,86.53
2022-11-10T06:20:21.814Z,86.72
2022-11-10T06:23:17.448Z,86.98
2022-11-10T06:26:10.509Z,87.18
2022-11-10T06:29:01.837Z,87.15
2022-11-10T06:31:53.546Z,86.57
2022-11-10T06:34:47.054Z,86.57
2022-11-10T06:37:40.216Z,86.86
2022-11-10T06:40:33.739Z,86.88
2022-11-10T06:43:25.199Z,86.65
2022-11-10T06:46:18.270Z,86.85
2022-11-10T06:49:11.139Z,86.54
2022-11-10T06:52:03.045Z,86.44
2022-11-10T06:54:53.918Z,86.80
2022-11-10T06:57:48.934Z,86.59
2022-11-10T07:00:40.440Z,87.19
2022-11-10T07:03:31.525Z,87.58
2022-11-10T07:06:23.241Z,88.02
2022-11-10T07:09:14.514Z,88.20
2022-11-10T07:12:06.420Z,88.01
2022-11-10T07:14:57.483Z,87.75
2022-11-10T07:17:48.632Z,87.59
2022-11-10T07:20:39.845Z,87.34
2022-11-10T07:23:30.760Z,87.17
2022-11-10T07:26:22.671Z,87.96
2022-11-10T07:29:13.472Z,88.52
2022-11-10T07:47:35.060Z,87.23
2022-11-10T07:50:27.500Z,87.09
2022-11-10T07:53:21.232Z,86.60
2022-11-10T07:56:14.445Z,86.53
2022-11-10T07:59:05.168Z,86.26
2022-11-10T08:01:56.529Z,85.86
2022-11-10T08:04:47.363Z,85.90
2022-11-10T08:07:38.774Z,85.67
2022-11-10T08:10:30.862Z,85.59
2022-11-10T08:13:23.056Z,85.42
2022-11-10T08:16:14.348Z,85.01
2022-11-10T08:19:05.933Z,85.13
2022-11-10T08:21:56.777Z,85.04
2022-11-10T08:24:48.317Z,85.23
2022-11-10T08:27:39.660Z,85.04
2022-11-10T08:30:31.370Z,85.00
2022-11-10T08:33:24.168Z,85.05
2022-11-10T08:36:15.419Z,85.12
2022-11-10T08:39:06.697Z,84.75
2022-11-10T08:41:58.016Z,84.14
2022-11-10T08:44:49.168Z,83.60
2022-11-10T08:47:39.856Z,83.42
2022-11-10T08:50:31.543Z,82.65
2022-11-10T08:53:26.476Z,81.65
2022-11-10T08:56:18.005Z,81.32
2022-11-10T08:59:10.041Z,82.01
2022-11-10T09:02:00.219Z,81.26
2022-11-10T09:04:50.724Z,81.25
2022-11-10T09:07:49.410Z,80.65
2022-11-10T09:10:40.896Z,79.65
2022-11-10T09:13:31.142Z,79.45
2022-11-10T09:16:22.152Z,78.74
2022-11-10T09:19:18.460Z,78.38
2022-11-10T09:22:14.343Z,77.95
2022-11-10T09:25:04.029Z,78.47
2022-11-10T09:27:53.335Z,77.90
2022-11-10T09:30:42.716Z,77.72
2022-11-10T09:33:32.102Z,77.84
2022-11-10T09:36:21.512Z,78.01
2022-11-10T09:39:11.171Z,77.78
2022-11-10T09:42:00.904Z,77.32
2022-11-10T09:45:00.167Z,76.67
2022-11-10T09:47:58.263Z,76.15
2022-11-10T09:50:50.346Z,75.89
2022-11-10T09:53:42.776Z,75.56
2022-11-10T09:56:35.287Z,75.47
2022-11-10T09:59:29.934Z,75.44
2022-11-10T10:02:24.804Z,75.55
2022-11-10T10:05:37.759Z,75.74
2022-11-10T10:08:33.800Z,75.84
2022-11-10T10:11:30.306Z,75.94
2022-11-10T10:14:26.063Z,75.82
2022-11-10T10:17:26.193Z,76.33
2022-11-10T10:20:21.073Z,76.12
2022-11-10T10:23:15.798Z,75.54
2022-11-10T10:26:07.051Z,74.80
2022-11-10T10:28:58.199Z,73.90
2022-11-10T10:31:49.987Z,74.50
2022-11-10T10:34:40.430Z,75.03
2022-11-10T10:37:36.843Z,74.77
2022-11-10T10:40:26.754Z,74.41
2022-11-10T10:43:17.552Z,74.51
2022-11-10T10:46:09.073Z,74.32
2022-11-10T10:49:27.867Z,74.49
2022-11-10T10:52:24.997Z,74.20
2022-11-10T10:55:15.152Z,73.46
2022-11-10T10:58:06.625Z,72.97
2022-11-10T11:00:59.289Z,72.53
2022-11-10T11:03:50.235Z,72.33
2022-11-10T11:06:39.466Z,71.63
2022-11-10T11:09:30.289Z,71.72
2022-11-10T11:12:32.845Z,71.48
2022-11-10T11:15:28.835Z,71.71
2022-11-10T11:18:22.854Z,71.40
2022-11-10T11:21:25.113Z,71.77
2022-11-10T11:24:23.196Z,71.80
2022-11-10T11:27:19.540Z,71.22
2022-11-10T11:30:15.256Z,71.07
2022-11-10T11:33:19.255Z,70.97
2022-11-10T11:36:16.758Z,70.51
2022-11-10T11:39:16.345Z,70.59
2022-11-10T11:42:12.085Z,70.41
2022-11-10T11:45:08.588Z,69.96
2022-11-10T11:48:06.615Z,70.01
2022-11-10T11:50:59.245Z,70.40
2022-11-10T11:53:54.852Z,70.98
2022-11-10T11:56:46.055Z,70.49
2022-11-10T11:59:44.395Z,69.45
2022-11-10T12:02:52.983Z,69.13
2022-11-10T12:05:54.052Z,68.67
2022-11-10T12:08:48.310Z,68.84
2022-11-10T12:11:43.857Z,68.86
2022-11-10T12:14:40.240Z,69.27
2022-11-10T12:17:36.103Z,69.11
2022-11-10T12:20:31.556Z,69.16
2022-11-10T12:23:27.189Z,68.32
2022-11-10T12:26:23.278Z,68.53
2022-11-10T12:29:19.261Z,68.53
2022-11-10T12:32:14.831Z,68.32
2022-11-10T12:35:11.619Z,68.00
2022-11-10T12:38:05.790Z,68.07
2022-11-10T12:41:01.399Z,67.60
2022-11-10T12:43:59.366Z,66.63
2022-11-10T12:46:52.208Z,66.89
2022-11-10T12:49:51.811Z,66.91
2022-11-10T12:52:44.508Z,67.12
2022-11-10T12:55:37.516Z,67.06
2022-11-10T12:58:27.776Z,67.17
2022-11-10T13:01:19.760Z,66.79
2022-11-10T13:04:09.802Z,65.98
2022-11-10T13:07:00.475Z,65.91
2022-11-10T13:09:51.529Z,66.06
2022-11-10T13:12:58.895Z,65.91
2022-11-10T13:15:51.323Z,66.26
2022-11-10T13:19:01.021Z,66.63
2022-11-10T13:22:09.731Z,66.78
2022-11-10T13:25:12.829Z,66.34
2022-11-10T13:28:02.558Z,66.26
2022-11-10T13:30:53.583Z,66.16
2022-11-10T13:34:03.362Z,65.92
2022-11-10T13:36:53.058Z,65.79
2022-11-10T13:39:42.322Z,65.92
2022-11-10T13:42:32.045Z,65.75
2022-11-10T13:45:31.686Z,65.57
2022-11-10T13:48:27.503Z,66.50
2022-11-10T13:51:28.083Z,67.12
2022-11-10T13:54:34.633Z,67.08
2022-11-10T13:57:27.313Z,67.63
2022-11-10T14:00:31.379Z,68.18
2022-11-10T14:03:34.112Z,68.84
2022-11-10T14:06:25.567Z,69.35
2022-11-10T14:09:21.600Z,69.74
2022-11-10T14:12:26.368Z,69.91
2022-11-10T14:15:22.101Z,70.37
2022-11-10T14:18:19.759Z,70.62
2022-11-10T14:21:14.028Z,70.47
2022-11-10T14:24:09.031Z,70.07
2022-11-10T14:27:00.875Z,70.17
2022-11-10T14:29:50.342Z,70.15
2022-11-10T14:32:39.684Z,70.57
2022-11-10T14:35:30.893Z,70.58
2022-11-10T14:38:23.840Z,70.51
2022-11-10T14:41:20.344Z,70.45
2022-11-10T14:44:15.498Z,70.83
2022-11-10T14:47:25.207Z,70.86
2022-11-10T14:50:21.395Z,70.92
2022-11-10T14:53:15.706Z,70.91
2022-11-10T14:56:06.670Z,71.19
2022-11-10T14:59:00.161Z,71.17
2022-11-10T15:01:55.447Z,71.15
2022-11-10T15:04:46.441Z,71.30
2022-11-10T15:07:36.887Z,71.37
2022-11-10T15:10:28.013Z,71.63
2022-11-10T15:13:35.321Z,71.18
2022-11-10T15:16:27.305Z,70.98
2022-11-10T15:19:24.207Z,71.08
2022-11-10T15:22:19.633Z,71.14
2022-11-10T15:25:16.351Z,71.27
2022-11-10T15:28:07.591Z,71.57
2022-11-10T15:30:58.042Z,71.27
2022-11-10T15:33:48.254Z,71.48
2022-11-10T15:36:39.798Z,71.26
2022-11-10T15:39:30.376Z,71.22
2022-11-10T15:42:23.064Z,71.12
2022-11-10T15:45:12.592Z,71.16
2022-11-10T15:48:02.803Z,71.51
2022-11-10T15:50:54.119Z,71.56
2022-11-10T15:53:45.005Z,71.47
2022-11-10T15:56:34.114Z,71.68
2022-11-10T15:59:23.737Z,71.69
2022-11-10T16:02:23.834Z,71.88
2022-11-10T16:05:14.778Z,71.90
2022-11-10T16:08:05.460Z,72.08
2022-11-10T16:10:57.456Z,72.21
2022-11-10T16:13:47.491Z,72.69
2022-11-10T16:16:37.142Z,72.95
2022-11-10T16:19:27.922Z,72.62
2022-11-10T16:22:18.213Z,73.36
2022-11-10T16:25:18.877Z,73.66
2022-11-10T16:28:20.403Z,73.45
2022-11-10T16:31:12.347Z,73.39
2022-11-10T16:34:01.863Z,73.80
2022-11-10T16:36:51.496Z,74.07
2022-11-10T16:39:41.347Z,73.94
2022-11-10T16:42:31.889Z,74.09
2022-11-10T16:45:23.391Z,73.61
2022-11-10T16:48:24.500Z,74.02
2022-11-10T16:51:18.138Z,73.87
2022-11-10T16:54:12.136Z,73.79
2022-11-10T16:57:02.813Z,73.99
2022-11-10T16:59:52.609Z,74.13
2022-11-10T17:02:46.245Z,74.13
2022-11-10T17:05:42.354Z,74.39
2022-11-10T17:08:33.306Z,74.58
2022-11-10T17:11:24.760Z,74.79
2022-11-10T17:14:16.779Z,75.15
2022-11-10T17:17:06.768Z,75.43
2022-11-10T17:19:57.718Z,75.51
2022-11-10T17:22:51.457Z,75.71
2022-11-10T17:25:42.889Z,75.97
2022-11-10T17:28:35.254Z,75.99
2022-11-10T17:31:25.861Z,76.00
2022-11-10T17:34:16.377Z,76.21
2022-11-10T17:37:07.228Z,76.76
2022-11-10T17:39:58.076Z,76.60
2022-11-10T17:42:47.924Z,76.54
2022-11-10T17:45:40.836Z,76.20
2022-11-10T17:48:30.488Z,76.17
2022-11-10T17:51:22.487Z,76.38
2022-11-10T17:55:06.963Z,75.88
2022-11-10T17:57:58.247Z,75.64
2022-11-10T18:00:48.502Z,75.45
2022-11-10T18:03:39.055Z,75.63
2022-11-10T18:06:28.718Z,75.25
2022-11-10T18:09:18.323Z,75.34
2022-11-10T18:12:08.396Z,75.45
2022-11-10T18:14:58.256Z,75.48
2022-11-10T18:18:58.690Z,75.39
2022-11-10T18:26:03.932Z,75.39
2022-11-10T18:28:57.652Z,75.41
2022-11-10T18:31:50.051Z,75.58
2022-11-10T18:35:04.908Z,75.69
2022-11-10T18:37:56.182Z,75.55
2022-11-10T18:40:48.900Z,75.23
2022-11-10T18:43:39.873Z,75.01
2022-11-10T18:46:32.696Z,74.89
2022-11-10T18:49:24.018Z,75.09
2022-11-10T18:52:16.252Z,75.58
2022-11-10T18:55:09.420Z,75.16
2022-11-10T18:58:00.184Z,75.01
2022-11-10T19:00:52.280Z,74.92
2022-11-10T19:03:44.203Z,74.94
2022-11-10T19:06:35.891Z,75.38
2022-11-10T19:09:27.155Z,75.71
2022-11-10T19:12:21.455Z,75.73
2022-11-10T19:15:19.581Z,75.69
2022-11-10T19:18:10.820Z,75.45
2022-11-10T19:21:07.525Z,75.98
2022-11-10T19:23:58.999Z,76.51
2022-11-10T19:26:53.272Z,76.81
2022-11-10T19:29:47.004Z,76.98
2022-11-10T19:32:39.311Z,76.47
2022-11-10T19:35:32.472Z,76.74
2022-11-10T19:38:25.285Z,76.99
2022-11-10T19:41:23.094Z,76.32
2022-11-10T19:44:16.619Z,75.90
2022-11-10T19:47:08.203Z,75.74
2022-11-10T19:50:03.227Z,76.08
2022-11-10T19:53:18.631Z,76.74
2022-11-10T19:56:15.130Z,77.03
2022-11-10T19:59:08.679Z,77.44
2022-11-10T20:02:00.942Z,77.00
2022-11-10T20:05:08.887Z,77.20
2022-11-10T20:08:13.162Z,77.12
2022-11-10T20:11:05.859Z,77.15
2022-11-10T20:13:59.564Z,76.79
2022-11-10T20:16:53.614Z,76.73
2022-11-10T20:19:46.882Z,76.69
2022-11-10T20:22:39.040Z,77.10
2022-11-10T20:25:29.763Z,76.93
2022-11-10T20:28:21.379Z,77.50
2022-11-10T20:31:12.325Z,78.12
2022-11-10T20:34:02.180Z,78.45
2022-11-10T20:36:52.596Z,79.10
2022-11-10T20:39:43.743Z,78.81
2022-11-10T20:42:37.794Z,78.85
2022-11-10T20:45:32.138Z,78.75
2022-11-10T20:48:22.398Z,78.65
2022-11-10T20:51:19.588Z,78.44
2022-11-10T20:54:12.570Z,78.36
2022-11-10T20:57:07.285Z,78.48
2022-11-10T21:00:04.376Z,78.51
2022-11-10T21:02:55.814Z,78.17
2022-11-10T21:05:45.564Z,78.56
2022-11-10T21:09:00.055Z,78.67
2022-11-10T21:12:08.209Z,78.41
2022-11-10T21:14:58.536Z,78.19
2022-11-10T21:17:48.582Z,78.15
2022-11-10T21:20:37.779Z,77.83
2022-11-10T21:23:28.513Z,77.67
2022-11-10T21:26:20.447Z,77.96
2022-11-10T21:29:13.011Z,77.77
2022-11-10T21:32:03.214Z,77.97
2022-11-10T21:34:52.867Z,77.94
2022-11-10T21:37:46.755Z,77.77
2022-11-10T21:40:37.963Z,77.85
2022-11-10T21:43:28.792Z,77.12
2022-11-10T21:46:19.615Z,77.31
2022-11-10T21:49:09.479Z,77.44
2022-11-10T21:51:59.947Z,77.77
2022-11-10T21:54:50.031Z,77.32
2022-11-10T21:57:41.452Z,76.78
2022-11-10T22:00:33.300Z,76.19
2022-11-10T22:03:23.331Z,76.48
2022-11-10T22:06:19.694Z,76.61
2022-11-10T22:09:09.946Z,76.34
2022-11-10T22:12:20.553Z,76.27
2022-11-10T22:15:40.609Z,76.06
2022-11-10T22:18:41.354Z,76.25
2022-11-10T22:21:32.321Z,76.50
2022-11-10T22:24:24.373Z,76.88
2022-11-10T22:27:19.676Z,76.80
2022-11-10T22:30:16.708Z,76.34
2022-11-10T22:33:34.794Z,75.94
2022-11-10T22:37:03.825Z,76.10
2022-11-10T22:40:12.070Z,76.16
2022-11-10T22:43:21.191Z,76.24
2022-11-10T22:46:11.594Z,76.47
2022-11-10T22:49:25.485Z,77.17
2022-11-10T22:52:18.083Z,77.75
2022-11-10T22:55:12.590Z,77.90
2022-11-10T22:58:03.190Z,77.94
2022-11-10T23:00:56.852Z,78.25
2022-11-10T23:03:50.874Z,78.36
2022-11-10T23:07:29.860Z,78.17
2022-11-10T23:10:23.163Z,78.21
2022-11-10T23:13:15.263Z,78.64
2022-11-10T23:16:07.345Z,78.44
2022-11-10T23:18:58.122Z,78.37
2022-11-10T23:22:11.871Z,78.25
2022-11-10T23:25:26.185Z,78.60
2022-11-10T23:28:16.912Z,78.41
2022-11-10T23:31:08.850Z,78.30
2022-11-10T23:33:58.114Z,78.18
2022-11-10T23:36:47.008Z,78.54
2022-11-10T23:39:36.674Z,78.16
2022-11-10T23:42:27.756Z,78.00
2022-11-10T23:45:18.575Z,77.99
2022-11-10T23:48:08.320Z,77.78
2022-11-10T23:50:58.831Z,77.70
2022-11-10T23:53:48.048Z,77.31
2022-11-10T23:56:37.124Z,77.06
2022-11-10T23:59:26.524Z,77.47
